Garin, Argentina
Current Conditions -  °F | °C
As of 3:00 AM on Saturday 25 Oct 2014 (Local Time) from SADF Reporting Station
Clear Clear  
Wind Chill: 72°   Ceiling: Unl
Heat Index: 72°   Visibility: 6mi
Dew Point: 66°   Wind: 5mph
Humidity: 83%   Direction: 50°NE
Pressure: 29.91"   Gusts: NA
Location:  34.43°S, 58.73°W
Report Text: SADF 250600Z 05004KT CAVOK 22/19 Q1013
Loading
Personal Weather Stations






























Interactive Weather Map New forecast layout! Learn more

10-Day Weather Forecast

Advertisements
Track Severe Weather on mobile